ADDS METAR Data INFO
IDs: Format: Raw Decoded Include TAF

Data at: 2257 UTC 22 Jun 2018

KBLU 222252Z AUTO 28007KT 10SM CLR 26/02 A3016 RMK AO2 SLP112 T02610022
KBLU 222152Z AUTO VRB05KT 10SM CLR 27/02 A3018 RMK AO2 SLP108 T02670017
KBLU 222052Z AUTO 29007KT 10SM CLR 27/M01 A3019 RMK AO2 SLP116 T02671011 58005
KBLU 221952Z AUTO 10SM CLR 26/M04 A3020 RMK AO2 SLP122 T02561044
KBLU 221852Z AUTO VRB04KT 10SM CLR 25/M04 A3020 RMK AO2 SLP124 T02501039
KBLU 221752Z AUTO VRB03KT 10SM CLR 24/M06 A3021 RMK AO2 SLP128 T02441056 10244 20183 50003
KBLU 221652Z AUTO 21004KT 10SM CLR 24/M01 A3021 RMK AO2 SLP130 T02391011
KBLU 221552Z AUTO 00000KT 10SM CLR 23/M03 A3021 RMK AO2 SLP128 T02331028
KBLU 221452Z AUTO VRB04KT 10SM CLR 21/M02 A3019 RMK AO2 SLP124 T02111017 52002
KBLU 221352Z AUTO VRB06KT 10SM CLR 20/M03 A3019 RMK AO2 SLP122 T02001033
KBLU 221252Z AUTO 04006KT 10SM CLR 18/M04 A3019 RMK AO2 SLP125 T01831044
KBLU 221152Z AUTO 04005KT 10SM CLR 19/M04 A3019 RMK AO2 SLP121 T01891044 10200 20161 56002
KBLU 221052Z AUTO 04005KT 10SM CLR 17/M04 A3019 RMK AO2 SLP127 T01721044
KBLU 220952Z AUTO 35005KT 10SM CLR 19/M06 A3019 RMK AO2 SLP121 T01941061
KBLU 220852Z AUTO 04006KT 10SM CLR 19/M06 A3019 RMK AO2 SLP127 T01891056 58007
KBLU 220752Z AUTO 03004KT 10SM CLR 19/M01 A3020 RMK AO2 SLP130 T01891006 402500161
KBLU 220652Z AUTO 04005KT 10SM CLR 19/03 A3021 RMK AO2 SLP135 T01890028
KBLU 220552Z AUTO 04005KT 10SM CLR 18/04 A3022 RMK AO2 SLP141 T01830039 10250 20178 51001
KBLU 220452Z AUTO 05004KT 10SM CLR 19/03 A3022 RMK AO2 SLP141 T01890028
KBLU 220352Z AUTO 30003KT 10SM CLR 20/02 A3022 RMK AO2 SLP142 T02000022
KBLU 220252Z AUTO 28004KT 10SM CLR 22/02 A3022 RMK AO2 SLP137 T02170022 55000
KBLU 220152Z AUTO VRB06KT 10SM CLR 23/01 A3021 RMK AO2 SLP135 T02330011
KBLU 220052Z AUTO 24003KT 10SM CLR 24/01 A3021 RMK AO2 SLP134 T02390006
KBLU 212352Z AUTO VRB03KT 10SM CLR 24/01 A3022 RMK AO2 SLP137 T02440011 10250 20211 58003
KBLU 212252Z AUTO 20006KT 10SM CLR 24/M01 A3022 RMK AO2 SLP139 T02391006
KBLU 212152Z AUTO VRB03KT 10SM CLR 24/M02 A3022 RMK AO2 SLP140 T02391022
KBLU 212052Z AUTO 10SM CLR 23/01 A3022 RMK AO2 SLP140 T02330011 50001
KBLU 211952Z AUTO 18008KT 10SM CLR 23/03 A3023 RMK AO2 SLP145 T02280028
KBLU 211852Z AUTO 23006KT 10SM CLR 22/01 A3022 RMK AO2 SLP146 T02220011
KBLU 211752Z AUTO 17009KT 10SM CLR 21/01 A3022 RMK AO2 SLP148 T02110011 10217 20161 51007
KBLU 211652Z AUTO 17007KT 10SM CLR 21/M01 A3021 RMK AO2 SLP144 T02061011
KBLU 211552Z AUTO 17006KT 10SM CLR 20/M03 A3021 RMK AO2 SLP143 T02001033
KBLU 211452Z AUTO 15003KT 10SM CLR 19/M03 A3019 RMK AO2 SLP135 T01891028 51006
KBLU 211352Z AUTO 11004KT 10SM CLR 17/M05 A3019 RMK AO2 SLP132 T01721050 $
KBLU 211252Z AUTO 11004KT 10SM CLR 17/M05 A3018 RMK AO2 SLP131 T01671050 $
KBLU 211152Z AUTO 11004KT 10SM CLR 16/M05 A3017 RMK AO2 SLP128 T01611050 10172 20161 56004 $